SAAJ/JNI METAR and TAF weather

Enter ICAO airport designator
Station Type Date Time Source
SAAJ METAR 2019/07/12 00:45 UTC NOAA

SAAJ 120045Z 14007KT 9999 TS OVC045 FEW050CB 14/10 Q1010


Station Type Date Time Source
SAAJ Decoded METAR 2019/07/12 00:45 UTC NOAA

Junin Aerodrome, Argentina (SAAJ) 34-33S 060-55W 81M
Jul 11, 2019 - 08:45 PM EDT / 2019.07.12 0045 UTC
Wind: from the SE (140 degrees) at 8 MPH (7 KT):0
Visibility: greater than 7 mile(s):0
Sky conditions: overcast
Weather: thunder; Cumulonimbus clouds observed
Temperature: 57 F (14 C)
Dew Point: 50 F (10 C)
Relative Humidity: 76%
Pressure (altimeter): 29.83 in. Hg (1010 hPa)
ob: SAAJ 120045Z 14007KT 9999 TS OVC045 FEW050CB 14/10 Q1010
cycle: 1

Station Type Date Time Source
SAAJ TAF UTC NOAA

Error!

Example: see airport list